createdAt,value
2023-02-16T00:01:24.137Z,34.70
2023-02-16T00:03:52.577Z,34.41
2023-02-16T00:06:20.903Z,34.73
2023-02-16T00:08:49.825Z,34.55
2023-02-16T00:11:38.996Z,34.44
2023-02-16T00:14:09.148Z,34.75
2023-02-16T00:16:37.428Z,34.63
2023-02-16T00:19:14.840Z,34.47
2023-02-16T00:21:43.051Z,33.80
2023-02-16T00:24:11.581Z,34.13
2023-02-16T00:26:41.728Z,34.21
2023-02-16T00:29:12.825Z,33.90
2023-02-16T00:31:41.992Z,34.40
2023-02-16T00:34:24.584Z,34.04
2023-02-16T00:36:54.915Z,34.31
2023-02-16T00:39:25.121Z,34.39
2023-02-16T00:41:56.155Z,34.32
2023-02-16T00:44:28.360Z,34.29
2023-02-16T00:46:56.621Z,34.13
2023-02-16T00:49:24.832Z,33.82
2023-02-16T00:51:53.074Z,33.77
2023-02-16T00:54:21.273Z,33.77
2023-02-16T00:56:49.841Z,33.96
2023-02-16T00:59:21.521Z,34.11
2023-02-16T01:01:49.896Z,33.84
2023-02-16T01:04:21.043Z,34.22
2023-02-16T01:07:06.458Z,34.08
2023-02-16T01:09:52.198Z,34.37
2023-02-16T01:12:21.012Z,34.48
2023-02-16T01:14:52.704Z,34.01
2023-02-16T01:17:20.956Z,34.25
2023-02-16T01:19:49.109Z,34.11
2023-02-16T01:22:18.353Z,34.13
2023-02-16T01:24:46.560Z,34.48
2023-02-16T01:27:15.304Z,34.24
2023-02-16T01:29:46.484Z,34.71
2023-02-16T01:32:17.837Z,34.03
2023-02-16T01:34:46.199Z,34.67
2023-02-16T01:37:16.040Z,34.50
2023-02-16T01:39:45.321Z,33.94
2023-02-16T01:42:21.117Z,34.23
2023-02-16T01:44:50.733Z,34.46
2023-02-16T01:47:27.849Z,34.36
2023-02-16T01:49:56.047Z,34.39
2023-02-16T01:52:28.616Z,34.27
2023-02-16T01:54:58.543Z,34.41
2023-02-16T01:57:31.568Z,34.24
2023-02-16T02:00:07.531Z,34.08
2023-02-16T02:02:44.878Z,34.21
2023-02-16T02:05:36.922Z,33.77
2023-02-16T02:08:16.488Z,34.18
2023-02-16T02:10:49.723Z,34.21
2023-02-16T02:13:20.919Z,33.87
2023-02-16T02:15:49.225Z,34.15
2023-02-16T02:18:18.885Z,34.10
2023-02-16T02:21:11.684Z,33.75
2023-02-16T02:23:47.172Z,33.61
2023-02-16T02:27:04.857Z,33.64
2023-02-16T02:30:03.216Z,33.75
2023-02-16T02:32:37.321Z,33.54
2023-02-16T02:35:13.635Z,33.61
2023-02-16T02:37:48.329Z,33.64
2023-02-16T02:40:20.457Z,33.35
2023-02-16T02:42:54.634Z,33.96
2023-02-16T02:45:24.275Z,33.41
2023-02-16T02:47:52.558Z,33.97
2023-02-16T02:50:33.226Z,33.68
2023-02-16T02:53:03.420Z,33.53
2023-02-16T02:55:48.870Z,33.28
2023-02-16T02:58:36.397Z,33.93
2023-02-16T03:01:05.210Z,33.38
2023-02-16T03:03:35.332Z,33.48
2023-02-16T03:06:06.323Z,33.29
2023-02-16T03:08:36.199Z,33.77
2023-02-16T03:11:23.847Z,33.84
2023-02-16T03:13:56.758Z,33.60
2023-02-16T03:16:26.616Z,33.35
2023-02-16T03:19:11.975Z,33.25
2023-02-16T03:21:57.755Z,33.99
2023-02-16T03:24:44.782Z,33.78
2023-02-16T03:27:30.530Z,33.20
2023-02-16T03:30:00.127Z,33.40
2023-02-16T03:32:28.312Z,33.21
2023-02-16T03:34:56.531Z,33.58
2023-02-16T03:37:24.673Z,33.51
2023-02-16T03:40:10.258Z,34.00
2023-02-16T03:42:38.537Z,34.27
2023-02-16T03:45:09.193Z,33.81
2023-02-16T03:47:37.468Z,33.84
2023-02-16T03:50:06.258Z,34.31
2023-02-16T03:52:34.470Z,33.63
2023-02-16T03:55:02.586Z,33.86
2023-02-16T03:57:30.772Z,34.17
2023-02-16T03:59:59.483Z,34.31
2023-02-16T04:02:29.392Z,34.02
2023-02-16T04:04:58.383Z,34.42
2023-02-16T04:07:26.562Z,34.05
2023-02-16T04:09:54.829Z,33.96
2023-02-16T04:12:37.807Z,34.00
2023-02-16T04:15:07.518Z,33.69
2023-02-16T04:17:37.267Z,34.27
2023-02-16T04:20:06.288Z,33.77
2023-02-16T04:22:34.534Z,33.86
2023-02-16T04:25:02.720Z,33.95
2023-02-16T04:27:30.944Z,34.00
2023-02-16T04:29:59.142Z,34.40
2023-02-16T04:32:27.479Z,34.50
2023-02-16T04:34:57.146Z,34.51
2023-02-16T04:37:25.318Z,33.89
2023-02-16T04:39:53.547Z,33.83
2023-02-16T04:42:21.745Z,34.54
2023-02-16T04:44:50.022Z,34.25
2023-02-16T04:47:18.117Z,34.15
2023-02-16T04:49:47.554Z,34.27
2023-02-16T04:52:18.762Z,33.74
2023-02-16T04:54:47.063Z,34.08
2023-02-16T04:57:15.673Z,33.65
2023-02-16T04:59:43.879Z,33.24
2023-02-16T05:02:12.233Z,33.48
2023-02-16T05:04:42.061Z,34.07
2023-02-16T05:07:10.292Z,33.86
2023-02-16T05:09:39.849Z,34.18
2023-02-16T05:12:25.698Z,33.67
2023-02-16T05:14:53.901Z,33.90
2023-02-16T05:17:23.233Z,34.04
2023-02-16T05:19:52.460Z,33.89
2023-02-16T05:22:20.721Z,33.66
2023-02-16T05:24:50.409Z,34.23
2023-02-16T05:27:19.321Z,33.87
2023-02-16T05:29:47.548Z,33.72
2023-02-16T05:32:16.188Z,33.88
2023-02-16T05:34:45.688Z,34.28
2023-02-16T05:37:14.081Z,34.05
2023-02-16T05:39:42.259Z,34.12
2023-02-16T05:42:11.872Z,33.77
2023-02-16T05:44:40.047Z,33.95
2023-02-16T05:47:08.212Z,33.83
2023-02-16T05:49:36.408Z,33.85
2023-02-16T05:52:04.634Z,34.32
2023-02-16T05:54:32.961Z,33.55
2023-02-16T05:57:01.180Z,34.23
2023-02-16T05:59:30.789Z,33.74
2023-02-16T06:01:58.960Z,33.63
2023-02-16T06:04:28.742Z,33.61
2023-02-16T06:06:56.940Z,33.51
2023-02-16T06:09:25.195Z,34.15
2023-02-16T06:11:53.839Z,33.57
2023-02-16T06:14:22.124Z,34.26
2023-02-16T06:16:52.701Z,34.10
2023-02-16T06:19:21.262Z,33.59
2023-02-16T06:21:49.844Z,33.80
2023-02-16T06:24:18.099Z,33.75
2023-02-16T06:26:46.325Z,33.65
2023-02-16T06:29:14.715Z,33.00
2023-02-16T06:31:43.041Z,33.06
2023-02-16T06:34:12.696Z,33.22
2023-02-16T06:36:42.588Z,33.26
2023-02-16T06:39:11.090Z,33.40
2023-02-16T06:41:40.624Z,33.70
2023-02-16T06:44:09.812Z,33.45
2023-02-16T06:46:38.085Z,33.85
2023-02-16T06:49:06.383Z,33.90
2023-02-16T06:51:35.995Z,34.08
2023-02-16T06:54:04.532Z,33.57
2023-02-16T06:56:33.190Z,33.27
2023-02-16T06:59:01.677Z,33.94
2023-02-16T07:01:30.321Z,33.12
2023-02-16T07:03:58.699Z,33.63
2023-02-16T07:06:28.526Z,33.19
2023-02-16T07:08:58.127Z,33.92
2023-02-16T07:11:26.385Z,33.14
2023-02-16T07:13:54.648Z,33.49
2023-02-16T07:16:22.886Z,34.02
2023-02-16T07:18:51.486Z,34.11
2023-02-16T07:21:19.661Z,33.63
2023-02-16T07:23:47.814Z,33.20
2023-02-16T07:26:17.368Z,33.22
2023-02-16T07:28:45.564Z,32.78
2023-02-16T07:31:14.934Z,32.95
2023-02-16T07:33:43.055Z,32.48
2023-02-16T07:36:11.560Z,32.86
2023-02-16T07:38:42.018Z,33.21
2023-02-16T07:41:10.979Z,32.43
2023-02-16T07:43:42.973Z,32.39
2023-02-16T07:46:11.574Z,32.50
2023-02-16T07:48:39.805Z,32.90
2023-02-16T07:51:08.232Z,32.58
2023-02-16T07:53:36.490Z,32.87
2023-02-16T07:56:05.032Z,32.08
2023-02-16T07:58:33.269Z,32.21
2023-02-16T08:01:09.392Z,31.99
2023-02-16T08:03:37.704Z,32.22
2023-02-16T08:06:06.488Z,32.57
2023-02-16T08:08:35.497Z,32.63
2023-02-16T08:11:09.623Z,32.58
2023-02-16T08:13:37.772Z,32.33
2023-02-16T08:16:10.663Z,32.03
2023-02-16T08:18:39.053Z,32.74
2023-02-16T08:21:14.469Z,32.35
2023-02-16T08:23:43.678Z,32.31
2023-02-16T08:26:12.206Z,32.56
2023-02-16T08:28:46.191Z,31.96
2023-02-16T08:31:17.161Z,31.93
2023-02-16T08:33:45.536Z,32.27
2023-02-16T08:36:19.064Z,32.29
2023-02-16T08:38:50.325Z,32.05
2023-02-16T08:41:18.828Z,32.33
2023-02-16T08:43:47.047Z,31.96
2023-02-16T08:46:16.836Z,31.91
2023-02-16T08:48:45.465Z,32.16
2023-02-16T08:51:15.089Z,32.42
2023-02-16T08:53:43.361Z,32.29
2023-02-16T08:56:12.340Z,32.56
2023-02-16T08:58:43.506Z,32.13
2023-02-16T09:01:12.054Z,32.22
2023-02-16T09:03:43.165Z,32.31
2023-02-16T09:06:12.314Z,32.76
2023-02-16T09:08:40.574Z,31.97
2023-02-16T09:11:09.787Z,32.36
2023-02-16T09:13:38.665Z,32.28
2023-02-16T09:16:08.137Z,32.11
2023-02-16T09:18:36.954Z,31.53
2023-02-16T09:21:07.547Z,32.20
2023-02-16T09:23:36.088Z,31.62
2023-02-16T09:26:07.204Z,31.72
2023-02-16T09:28:35.441Z,31.71
2023-02-16T09:31:10.489Z,31.90
2023-02-16T09:33:38.870Z,32.05
2023-02-16T09:36:09.570Z,32.37
2023-02-16T09:38:37.877Z,31.75
2023-02-16T09:41:11.646Z,32.44
2023-02-16T09:43:46.480Z,32.04
2023-02-16T09:46:15.460Z,32.50
2023-02-16T09:48:45.608Z,32.03
2023-02-16T09:51:17.224Z,32.43
2023-02-16T09:53:47.124Z,32.70
2023-02-16T09:56:20.263Z,32.79
2023-02-16T09:58:50.316Z,32.64
2023-02-16T10:01:24.531Z,32.42
2023-02-16T10:03:56.894Z,33.05
2023-02-16T10:06:46.605Z,32.99
2023-02-16T10:09:16.520Z,33.34
2023-02-16T10:11:49.064Z,33.16
2023-02-16T10:14:26.066Z,32.80
2023-02-16T10:16:56.526Z,32.98
2023-02-16T10:19:26.457Z,33.25
2023-02-16T10:21:57.353Z,32.93
2023-02-16T10:24:26.021Z,32.91
2023-02-16T10:26:57.169Z,32.96
2023-02-16T10:29:27.073Z,32.80
2023-02-16T10:32:01.713Z,33.20
2023-02-16T10:34:37.855Z,33.21
2023-02-16T10:37:18.287Z,33.34
2023-02-16T10:39:49.425Z,33.48
2023-02-16T10:42:21.439Z,33.28
2023-02-16T10:44:52.281Z,33.28
2023-02-16T10:47:28.091Z,33.49
2023-02-16T10:49:56.728Z,33.53
2023-02-16T10:52:26.276Z,33.56
2023-02-16T10:54:54.556Z,33.29
2023-02-16T10:57:26.838Z,33.35
2023-02-16T10:59:55.165Z,33.06
2023-02-16T11:02:25.821Z,33.58
2023-02-16T11:04:54.711Z,33.18
2023-02-16T11:07:23.428Z,33.28
2023-02-16T11:09:54.968Z,33.67
2023-02-16T11:12:29.555Z,33.15
2023-02-16T11:15:00.663Z,33.27
2023-02-16T11:17:29.110Z,33.44
2023-02-16T11:20:01.727Z,33.64
2023-02-16T11:22:35.209Z,33.45
2023-02-16T11:25:27.005Z,33.66
2023-02-16T11:27:57.084Z,33.71
2023-02-16T11:30:32.810Z,33.51
2023-02-16T11:35:48.689Z,33.34
2023-02-16T11:38:30.196Z,34.02
2023-02-16T11:41:00.079Z,34.12
2023-02-16T11:43:29.671Z,33.71
2023-02-16T11:45:59.283Z,33.93
2023-02-16T11:48:29.480Z,33.49
2023-02-16T11:50:58.926Z,33.80
2023-02-16T11:53:28.253Z,34.30
2023-02-16T11:56:14.643Z,34.02
2023-02-16T11:58:43.054Z,33.98
2023-02-16T12:01:18.810Z,34.29
2023-02-16T12:04:05.093Z,33.56
2023-02-16T12:06:40.414Z,33.96
2023-02-16T12:09:13.298Z,34.15
2023-02-16T12:11:46.898Z,33.82
2023-02-16T12:14:25.174Z,34.53
2023-02-16T12:16:55.993Z,33.74
2023-02-16T12:19:31.842Z,34.41
2023-02-16T12:22:03.632Z,34.47
2023-02-16T12:24:38.825Z,34.52
2023-02-16T12:27:11.808Z,34.84
2023-02-16T12:29:44.966Z,35.05
2023-02-16T12:32:22.259Z,35.13
2023-02-16T12:34:57.065Z,34.76
2023-02-16T12:37:28.625Z,34.47
2023-02-16T12:39:59.905Z,35.33
2023-02-16T12:42:53.421Z,35.02
2023-02-16T12:45:22.566Z,34.81
2023-02-16T12:47:54.214Z,35.30
2023-02-16T12:50:23.243Z,35.34
2023-02-16T12:52:54.154Z,34.92
2023-02-16T12:55:23.280Z,34.86
2023-02-16T12:57:57.131Z,35.21
2023-02-16T13:00:27.236Z,35.22
2023-02-16T13:02:58.092Z,34.93
2023-02-16T13:05:28.484Z,35.58
2023-02-16T13:07:58.264Z,35.57
2023-02-16T13:10:28.641Z,35.26
2023-02-16T13:13:02.048Z,35.55
2023-02-16T13:15:33.101Z,35.33
2023-02-16T13:18:03.978Z,35.64
2023-02-16T13:20:33.755Z,35.66
2023-02-16T13:23:40.208Z,35.47
2023-02-16T13:26:18.132Z,35.51
2023-02-16T13:29:25.345Z,35.26
2023-02-16T13:31:59.959Z,35.75
2023-02-16T13:34:43.811Z,35.80
2023-02-16T13:37:22.022Z,35.93
2023-02-16T13:40:00.583Z,35.38
2023-02-16T13:42:52.158Z,35.69
2023-02-16T13:45:22.636Z,35.86
2023-02-16T13:47:50.948Z,35.68
2023-02-16T13:50:28.209Z,36.13
2023-02-16T13:52:57.713Z,36.05
2023-02-16T13:55:28.648Z,35.97
2023-02-16T13:58:08.240Z,36.12
2023-02-16T14:00:39.307Z,36.27
2023-02-16T14:03:12.444Z,35.33
2023-02-16T14:05:41.868Z,35.60
2023-02-16T14:08:15.021Z,36.01
2023-02-16T14:11:06.149Z,35.68
2023-02-16T14:13:35.584Z,35.45
2023-02-16T14:16:08.911Z,35.72
2023-02-16T14:18:43.161Z,35.68
2023-02-16T14:21:19.216Z,35.32
2023-02-16T14:23:47.403Z,35.75
2023-02-16T14:26:16.169Z,35.44
2023-02-16T14:29:12.859Z,35.02
2023-02-16T14:31:45.804Z,35.46
2023-02-16T14:34:18.233Z,35.13
2023-02-16T14:37:28.009Z,34.74
2023-02-16T14:40:07.828Z,35.42
2023-02-16T14:42:36.735Z,35.09
2023-02-16T14:45:15.613Z,35.33
2023-02-16T14:47:48.610Z,35.65
2023-02-16T14:50:28.646Z,34.87
2023-02-16T14:53:29.198Z,35.61
2023-02-16T14:56:14.821Z,35.04
2023-02-16T14:58:48.450Z,35.19
2023-02-16T15:01:17.983Z,35.12
2023-02-16T15:03:50.412Z,35.17
2023-02-16T15:06:22.272Z,34.96
2023-02-16T15:08:58.318Z,35.35
2023-02-16T15:11:30.458Z,35.61
2023-02-16T15:14:04.306Z,35.46
2023-02-16T15:16:32.851Z,35.18
2023-02-16T15:19:04.650Z,35.28
2023-02-16T15:21:36.848Z,35.10
2023-02-16T15:24:06.119Z,35.25
2023-02-16T15:26:35.742Z,35.81
2023-02-16T15:29:05.604Z,35.14
2023-02-16T15:31:34.983Z,35.13
2023-02-16T15:34:05.910Z,35.90
2023-02-16T15:36:36.056Z,35.96
2023-02-16T15:39:05.884Z,35.61
2023-02-16T15:41:35.171Z,35.85
2023-02-16T15:44:03.949Z,35.73
2023-02-16T15:46:33.839Z,35.51
2023-02-16T15:49:13.934Z,35.19
2023-02-16T15:51:43.274Z,35.00
2023-02-16T15:54:18.002Z,35.34
2023-02-16T15:56:47.340Z,35.02
2023-02-16T15:59:32.920Z,35.23
2023-02-16T16:02:04.126Z,35.55
2023-02-16T16:04:38.821Z,35.33
2023-02-16T16:07:12.138Z,34.95
2023-02-16T16:09:40.377Z,35.05
2023-02-16T16:12:09.553Z,35.63
2023-02-16T16:14:40.635Z,35.11
2023-02-16T16:17:09.079Z,35.29
2023-02-16T16:19:38.986Z,35.50
2023-02-16T16:22:17.584Z,35.49
2023-02-16T16:24:48.712Z,35.15
2023-02-16T16:27:16.949Z,34.82
2023-02-16T16:29:46.535Z,35.06
2023-02-16T16:32:19.681Z,35.51
2023-02-16T16:34:49.375Z,35.19
2023-02-16T16:37:25.520Z,34.76
2023-02-16T16:40:00.925Z,35.17
2023-02-16T16:42:29.253Z,35.31
2023-02-16T16:44:59.720Z,35.15
2023-02-16T16:47:30.392Z,35.26
2023-02-16T16:50:01.040Z,35.33
2023-02-16T16:52:41.679Z,34.91
2023-02-16T16:55:27.327Z,34.93
2023-02-16T16:57:56.225Z,35.40
2023-02-16T17:00:25.139Z,34.98
2023-02-16T17:02:53.308Z,34.68
2023-02-16T17:05:22.921Z,35.48
2023-02-16T17:07:52.034Z,35.26
2023-02-16T17:10:21.178Z,35.22
2023-02-16T17:12:50.027Z,35.38
2023-02-16T17:15:29.031Z,35.25
2023-02-16T17:17:57.217Z,35.01
2023-02-16T17:20:26.784Z,34.91
2023-02-16T17:22:55.039Z,35.29
2023-02-16T17:25:23.323Z,34.87
2023-02-16T17:27:51.678Z,35.37
2023-02-16T17:30:19.932Z,34.82
2023-02-16T17:32:48.320Z,34.90
2023-02-16T17:35:16.657Z,34.88
2023-02-16T17:37:46.383Z,35.47
2023-02-16T17:40:17.473Z,35.13
2023-02-16T17:42:45.724Z,35.47
2023-02-16T17:45:13.900Z,34.87
2023-02-16T17:47:42.440Z,34.97
2023-02-16T17:50:12.780Z,35.11
2023-02-16T17:52:41.121Z,35.00
2023-02-16T17:55:11.011Z,34.89
2023-02-16T17:57:39.638Z,35.07
2023-02-16T18:00:09.503Z,34.71
2023-02-16T18:02:38.296Z,35.12
2023-02-16T18:05:07.022Z,34.97
2023-02-16T18:07:35.313Z,34.85
2023-02-16T18:10:03.526Z,35.19
2023-02-16T18:12:33.196Z,34.45
2023-02-16T18:15:01.513Z,34.83
2023-02-16T18:17:29.778Z,34.67
2023-02-16T18:19:58.015Z,35.08
2023-02-16T18:22:26.212Z,34.46
2023-02-16T18:24:54.491Z,34.59
2023-02-16T18:27:22.576Z,34.76
2023-02-16T18:29:52.160Z,34.87
2023-02-16T18:32:20.295Z,35.16
2023-02-16T18:34:48.398Z,34.40
2023-02-16T18:37:16.613Z,34.84
2023-02-16T18:39:44.922Z,35.18
2023-02-16T18:42:13.463Z,34.67
2023-02-16T18:44:41.815Z,34.92
2023-02-16T18:47:12.023Z,35.13
2023-02-16T18:49:40.483Z,35.20
2023-02-16T18:52:08.812Z,35.04
2023-02-16T18:54:36.927Z,35.17
2023-02-16T18:57:05.274Z,34.90
2023-02-16T18:59:34.372Z,34.91
2023-02-16T19:02:03.021Z,34.94
2023-02-16T19:04:33.250Z,35.13
2023-02-16T19:07:01.736Z,34.50
2023-02-16T19:09:29.932Z,34.82
2023-02-16T19:11:58.177Z,35.12
2023-02-16T19:14:26.469Z,34.86
2023-02-16T19:16:54.684Z,35.10
2023-02-16T19:19:22.861Z,34.92
2023-02-16T19:21:52.483Z,34.80
2023-02-16T19:24:20.763Z,34.75
2023-02-16T19:26:49.003Z,34.46
2023-02-16T19:29:17.583Z,34.60
2023-02-16T19:31:47.651Z,34.37
2023-02-16T19:34:17.124Z,34.33
2023-02-16T19:36:45.284Z,34.69
2023-02-16T19:39:14.926Z,34.69
2023-02-16T19:41:44.226Z,34.75
2023-02-16T19:44:13.994Z,34.57
2023-02-16T19:46:42.750Z,34.40
2023-02-16T19:49:13.180Z,34.74
2023-02-16T19:51:41.453Z,34.35
2023-02-16T19:54:10.011Z,34.47
2023-02-16T19:56:40.700Z,34.57
2023-02-16T19:59:09.931Z,34.36
2023-02-16T20:01:38.249Z,34.87
2023-02-16T20:04:06.544Z,34.73
2023-02-16T20:06:37.268Z,34.50
2023-02-16T20:09:05.720Z,35.03
2023-02-16T20:11:34.002Z,34.96
2023-02-16T20:14:04.132Z,34.40
2023-02-16T20:16:32.739Z,34.64
2023-02-16T20:19:01.191Z,34.80
2023-02-16T20:21:30.080Z,35.03
2023-02-16T20:23:59.470Z,34.70
2023-02-16T20:26:28.729Z,34.36
2023-02-16T20:28:57.400Z,34.78
2023-02-16T20:31:29.149Z,34.43
2023-02-16T20:33:57.469Z,34.56
2023-02-16T20:36:25.577Z,34.64
2023-02-16T20:38:53.828Z,34.80
2023-02-16T20:41:22.094Z,34.64
2023-02-16T20:43:50.569Z,34.90
2023-02-16T20:46:18.907Z,34.34
2023-02-16T20:48:50.179Z,34.28
2023-02-16T20:51:18.353Z,34.46
2023-02-16T20:53:46.608Z,34.37
2023-02-16T20:56:16.235Z,34.58
2023-02-16T20:58:45.172Z,34.53
2023-02-16T21:01:14.294Z,34.99
2023-02-16T21:03:42.599Z,34.64
2023-02-16T21:06:12.231Z,34.78
2023-02-16T21:08:40.450Z,34.64
2023-02-16T21:11:08.633Z,34.43
2023-02-16T21:13:36.972Z,34.27
2023-02-16T21:16:05.804Z,34.27
2023-02-16T21:18:34.200Z,34.63
2023-02-16T21:21:02.842Z,34.93
2023-02-16T21:23:32.549Z,34.44
2023-02-16T21:26:00.945Z,34.71
2023-02-16T21:28:29.265Z,34.70
2023-02-16T21:30:57.694Z,34.45
2023-02-16T21:33:25.939Z,34.09
2023-02-16T21:35:54.192Z,34.15
2023-02-16T21:38:22.395Z,34.17
2023-02-16T21:41:09.557Z,34.03
2023-02-16T21:43:37.800Z,34.58
2023-02-16T21:46:08.758Z,34.67
2023-02-16T21:48:50.184Z,34.33
2023-02-16T21:51:19.029Z,34.54
2023-02-16T21:53:47.222Z,34.42
2023-02-16T21:56:27.836Z,34.65
2023-02-16T21:58:56.244Z,34.41
2023-02-16T22:01:25.071Z,34.59
2023-02-16T22:03:58.600Z,34.49
2023-02-16T22:06:27.958Z,33.91
2023-02-16T22:08:56.158Z,34.63
2023-02-16T22:11:24.639Z,34.21
2023-02-16T22:13:58.139Z,34.24
2023-02-16T22:16:26.636Z,33.92
2023-02-16T22:18:57.816Z,34.53
2023-02-16T22:21:26.251Z,34.42
2023-02-16T22:23:54.496Z,34.31
2023-02-16T22:26:24.472Z,33.99
2023-02-16T22:28:52.709Z,34.13
2023-02-16T22:31:23.240Z,33.98
2023-02-16T22:33:56.202Z,34.64
2023-02-16T22:36:24.553Z,34.10
2023-02-16T22:38:53.074Z,34.06
2023-02-16T22:41:21.409Z,34.50
2023-02-16T22:43:49.687Z,34.08
2023-02-16T22:46:18.147Z,33.97
2023-02-16T22:48:47.902Z,33.88
2023-02-16T22:51:16.378Z,34.17
2023-02-16T22:53:44.646Z,34.21
2023-02-16T22:56:16.726Z,34.07
2023-02-16T22:58:44.927Z,34.12
2023-02-16T23:01:13.933Z,33.72
2023-02-16T23:03:42.929Z,34.12
2023-02-16T23:06:16.148Z,34.15
2023-02-16T23:08:44.539Z,34.29
2023-02-16T23:11:12.827Z,34.18
2023-02-16T23:13:41.060Z,33.88
2023-02-16T23:16:10.406Z,33.79
2023-02-16T23:18:38.625Z,34.13
2023-02-16T23:21:08.479Z,34.04
2023-02-16T23:23:38.188Z,34.27
2023-02-16T23:26:07.103Z,34.31
2023-02-16T23:28:35.556Z,34.21
2023-02-16T23:31:04.018Z,33.78
2023-02-16T23:33:32.320Z,33.88
2023-02-16T23:36:00.693Z,33.78
2023-02-16T23:38:28.794Z,34.23
2023-02-16T23:40:59.081Z,34.17
2023-02-16T23:43:27.445Z,34.35
2023-02-16T23:45:55.802Z,34.36
2023-02-16T23:48:24.158Z,33.75
2023-02-16T23:50:52.579Z,34.17
2023-02-16T23:53:20.949Z,34.21
2023-02-16T23:55:59.357Z,33.81
2023-02-16T23:58:28.570Z,33.81
